sensor_id;sensor_type;location;lat;lon;timestamp;temperature;humidity
14079;DHT22;7115;50.150;8.568;2024-01-11T00:00:34;-1.60;96.70
14079;DHT22;7115;50.150;8.568;2024-01-11T00:03:01;-1.70;96.80
14079;DHT22;7115;50.150;8.568;2024-01-11T00:05:28;-1.70;96.80
14079;DHT22;7115;50.150;8.568;2024-01-11T00:07:55;-1.80;96.80
14079;DHT22;7115;50.150;8.568;2024-01-11T00:10:22;-1.90;96.80
14079;DHT22;7115;50.150;8.568;2024-01-11T00:12:49;-1.90;96.90
14079;DHT22;7115;50.150;8.568;2024-01-11T00:15:17;-2.00;96.90
14079;DHT22;7115;50.150;8.568;2024-01-11T00:17:46;-2.00;97.00
14079;DHT22;7115;50.150;8.568;2024-01-11T00:20:13;-2.00;97.10
14079;DHT22;7115;50.150;8.568;2024-01-11T00:22:40;-2.00;97.10
14079;DHT22;7115;50.150;8.568;2024-01-11T00:25:08;-2.00;97.10
14079;DHT22;7115;50.150;8.568;2024-01-11T00:27:35;-2.00;97.10
14079;DHT22;7115;50.150;8.568;2024-01-11T00:30:02;-1.90;97.20
14079;DHT22;7115;50.150;8.568;2024-01-11T00:32:29;-1.90;97.30
14079;DHT22;7115;50.150;8.568;2024-01-11T00:34:58;-1.90;97.30
14079;DHT22;7115;50.150;8.568;2024-01-11T00:37:25;-1.90;97.30
14079;DHT22;7115;50.150;8.568;2024-01-11T00:39:52;-1.80;97.30
14079;DHT22;7115;50.150;8.568;2024-01-11T00:42:19;-1.80;97.30
14079;DHT22;7115;50.150;8.568;2024-01-11T00:44:46;-1.80;97.30
14079;DHT22;7115;50.150;8.568;2024-01-11T00:47:13;-1.80;97.30
14079;DHT22;7115;50.150;8.568;2024-01-11T00:49:40;-1.80;97.40
14079;DHT22;7115;50.150;8.568;2024-01-11T00:52:08;-1.90;97.40
14079;DHT22;7115;50.150;8.568;2024-01-11T00:54:36;-1.90;97.40
14079;DHT22;7115;50.150;8.568;2024-01-11T00:57:03;-1.90;97.50
14079;DHT22;7115;50.150;8.568;2024-01-11T00:59:30;-1.90;97.50
14079;DHT22;7115;50.150;8.568;2024-01-11T01:01:57;-2.00;97.50
14079;DHT22;7115;50.150;8.568;2024-01-11T01:04:24;-2.00;97.50
14079;DHT22;7115;50.150;8.568;2024-01-11T01:06:51;-2.10;97.50
14079;DHT22;7115;50.150;8.568;2024-01-11T01:09:20;-2.10;97.60
14079;DHT22;7115;50.150;8.568;2024-01-11T01:11:47;-2.10;97.60
14079;DHT22;7115;50.150;8.568;2024-01-11T01:14:14;-2.10;97.60
14079;DHT22;7115;50.150;8.568;2024-01-11T01:16:41;-2.10;97.70
14079;DHT22;7115;50.150;8.568;2024-01-11T01:19:08;-2.10;97.70
14079;DHT22;7115;50.150;8.568;2024-01-11T01:21:36;-2.20;97.70
14079;DHT22;7115;50.150;8.568;2024-01-11T01:24:03;-2.20;97.80
14079;DHT22;7115;50.150;8.568;2024-01-11T01:26:31;-2.10;97.80
14079;DHT22;7115;50.150;8.568;2024-01-11T01:28:59;-2.20;97.80
14079;DHT22;7115;50.150;8.568;2024-01-11T01:31:26;-2.20;98.10
14079;DHT22;7115;50.150;8.568;2024-01-11T01:33:53;-2.10;97.90
14079;DHT22;7115;50.150;8.568;2024-01-11T01:36:20;-2.10;98.00
14079;DHT22;7115;50.150;8.568;2024-01-11T01:38:47;-2.10;98.00
14079;DHT22;7115;50.150;8.568;2024-01-11T01:41:14;-2.00;98.10
14079;DHT22;7115;50.150;8.568;2024-01-11T01:43:42;-2.00;98.10
14079;DHT22;7115;50.150;8.568;2024-01-11T01:46:09;-1.90;98.10
14079;DHT22;7115;50.150;8.568;2024-01-11T01:48:36;-1.90;98.10
14079;DHT22;7115;50.150;8.568;2024-01-11T01:51:05;-1.90;98.10
14079;DHT22;7115;50.150;8.568;2024-01-11T01:53:33;-1.90;98.10
14079;DHT22;7115;50.150;8.568;2024-01-11T01:56:01;-2.20;98.10
14079;DHT22;7115;50.150;8.568;2024-01-11T01:58:28;-1.90;98.10
14079;DHT22;7115;50.150;8.568;2024-01-11T02:00:57;-1.90;98.10
14079;DHT22;7115;50.150;8.568;2024-01-11T02:03:28;-1.90;98.20
14079;DHT22;7115;50.150;8.568;2024-01-11T02:05:55;-1.90;98.20
14079;DHT22;7115;50.150;8.568;2024-01-11T02:08:23;-1.90;98.30
14079;DHT22;7115;50.150;8.568;2024-01-11T02:10:51;-1.80;98.30
14079;DHT22;7115;50.150;8.568;2024-01-11T02:13:19;-1.80;98.30
14079;DHT22;7115;50.150;8.568;2024-01-11T02:15:46;-1.80;98.30
14079;DHT22;7115;50.150;8.568;2024-01-11T02:18:15;-1.80;98.30
14079;DHT22;7115;50.150;8.568;2024-01-11T02:20:42;-1.70;98.30
14079;DHT22;7115;50.150;8.568;2024-01-11T02:23:14;-1.70;98.70
14079;DHT22;7115;50.150;8.568;2024-01-11T02:25:43;-1.70;98.40
14079;DHT22;7115;50.150;8.568;2024-01-11T02:28:10;-1.70;98.40
14079;DHT22;7115;50.150;8.568;2024-01-11T02:30:38;-1.70;98.40
14079;DHT22;7115;50.150;8.568;2024-01-11T02:33:05;-1.70;98.40
14079;DHT22;7115;50.150;8.568;2024-01-11T02:35:33;-1.70;98.40
14079;DHT22;7115;50.150;8.568;2024-01-11T02:38:02;-1.70;98.40
14079;DHT22;7115;50.150;8.568;2024-01-11T02:40:29;-1.70;98.40
14079;DHT22;7115;50.150;8.568;2024-01-11T02:42:58;-1.70;98.40
14079;DHT22;7115;50.150;8.568;2024-01-11T02:45:25;-1.70;98.40
14079;DHT22;7115;50.150;8.568;2024-01-11T02:47:52;-1.70;98.40
14079;DHT22;7115;50.150;8.568;2024-01-11T02:50:19;-1.70;98.40
14079;DHT22;7115;50.150;8.568;2024-01-11T02:52:46;-1.70;98.30
14079;DHT22;7115;50.150;8.568;2024-01-11T02:55:13;-1.80;98.40
14079;DHT22;7115;50.150;8.568;2024-01-11T02:57:40;-1.80;98.40
14079;DHT22;7115;50.150;8.568;2024-01-11T03:00:09;-1.90;98.70
14079;DHT22;7115;50.150;8.568;2024-01-11T03:02:37;-1.90;98.40
14079;DHT22;7115;50.150;8.568;2024-01-11T03:05:05;-1.90;98.40
14079;DHT22;7115;50.150;8.568;2024-01-11T03:07:32;-1.90;98.40
14079;DHT22;7115;50.150;8.568;2024-01-11T03:09:59;-2.00;98.40
14079;DHT22;7115;50.150;8.568;2024-01-11T03:12:26;-2.00;98.40
14079;DHT22;7115;50.150;8.568;2024-01-11T03:14:54;-2.00;98.40
14079;DHT22;7115;50.150;8.568;2024-01-11T03:17:22;-2.10;98.70
14079;DHT22;7115;50.150;8.568;2024-01-11T03:19:49;-2.10;98.50
14079;DHT22;7115;50.150;8.568;2024-01-11T03:22:16;-2.20;98.50
14079;DHT22;7115;50.150;8.568;2024-01-11T03:24:43;-2.10;98.50
14079;DHT22;7115;50.150;8.568;2024-01-11T03:27:10;-2.20;98.60
14079;DHT22;7115;50.150;8.568;2024-01-11T03:29:37;-2.20;98.60
14079;DHT22;7115;50.150;8.568;2024-01-11T03:32:05;-2.20;98.60
14079;DHT22;7115;50.150;8.568;2024-01-11T03:34:33;-2.10;98.70
14079;DHT22;7115;50.150;8.568;2024-01-11T03:37:00;-2.10;98.70
14079;DHT22;7115;50.150;8.568;2024-01-11T03:39:27;-2.10;98.70
14079;DHT22;7115;50.150;8.568;2024-01-11T03:41:54;-2.10;98.70
14079;DHT22;7115;50.150;8.568;2024-01-11T03:44:22;-2.10;98.80
14079;DHT22;7115;50.150;8.568;2024-01-11T03:46:49;-2.10;98.80
14079;DHT22;7115;50.150;8.568;2024-01-11T03:49:16;-2.10;98.70
14079;DHT22;7115;50.150;8.568;2024-01-11T03:51:45;-2.10;98.80
14079;DHT22;7115;50.150;8.568;2024-01-11T03:54:12;-2.10;99.10
14079;DHT22;7115;50.150;8.568;2024-01-11T03:56:39;-2.10;98.80
14079;DHT22;7115;50.150;8.568;2024-01-11T03:59:06;-2.10;98.80
14079;DHT22;7115;50.150;8.568;2024-01-11T04:01:37;-2.10;98.80
14079;DHT22;7115;50.150;8.568;2024-01-11T04:04:04;-2.10;98.80
14079;DHT22;7115;50.150;8.568;2024-01-11T04:06:31;-2.10;98.80
14079;DHT22;7115;50.150;8.568;2024-01-11T04:09:00;-2.10;98.70
14079;DHT22;7115;50.150;8.568;2024-01-11T04:11:27;-2.20;98.70
14079;DHT22;7115;50.150;8.568;2024-01-11T04:13:54;-2.20;98.80
14079;DHT22;7115;50.150;8.568;2024-01-11T04:16:22;-2.20;98.80
14079;DHT22;7115;50.150;8.568;2024-01-11T04:18:49;-2.20;98.80
14079;DHT22;7115;50.150;8.568;2024-01-11T04:21:22;-2.20;98.90
14079;DHT22;7115;50.150;8.568;2024-01-11T04:23:49;-2.20;98.90
14079;DHT22;7115;50.150;8.568;2024-01-11T04:26:18;-2.20;99.00
14079;DHT22;7115;50.150;8.568;2024-01-11T04:28:45;-2.20;99.00
14079;DHT22;7115;50.150;8.568;2024-01-11T04:31:13;-2.20;99.00
14079;DHT22;7115;50.150;8.568;2024-01-11T04:33:40;-2.20;99.00
14079;DHT22;7115;50.150;8.568;2024-01-11T04:36:08;-2.20;99.00
14079;DHT22;7115;50.150;8.568;2024-01-11T04:38:35;-2.20;99.00
14079;DHT22;7115;50.150;8.568;2024-01-11T04:41:03;-2.20;99.00
14079;DHT22;7115;50.150;8.568;2024-01-11T04:43:31;-2.20;99.00
14079;DHT22;7115;50.150;8.568;2024-01-11T04:45:58;-2.20;99.00
14079;DHT22;7115;50.150;8.568;2024-01-11T04:48:25;-2.20;99.00
14079;DHT22;7115;50.150;8.568;2024-01-11T04:50:52;-2.30;99.00
14079;DHT22;7115;50.150;8.568;2024-01-11T04:53:19;-2.30;99.00
14079;DHT22;7115;50.150;8.568;2024-01-11T04:55:46;-2.30;99.00
14079;DHT22;7115;50.150;8.568;2024-01-11T04:58:13;-2.30;99.00
14079;DHT22;7115;50.150;8.568;2024-01-11T05:00:41;-2.30;99.10
14079;DHT22;7115;50.150;8.568;2024-01-11T05:03:09;-2.20;99.10
14079;DHT22;7115;50.150;8.568;2024-01-11T05:05:37;-2.20;99.10
14079;DHT22;7115;50.150;8.568;2024-01-11T05:08:04;-2.20;99.10
14079;DHT22;7115;50.150;8.568;2024-01-11T05:10:31;-2.20;99.10
14079;DHT22;7115;50.150;8.568;2024-01-11T05:12:58;-2.10;99.10
14079;DHT22;7115;50.150;8.568;2024-01-11T05:15:26;-2.10;99.10
14079;DHT22;7115;50.150;8.568;2024-01-11T05:17:55;-2.20;99.10
14079;DHT22;7115;50.150;8.568;2024-01-11T05:20:22;-2.20;99.10
14079;DHT22;7115;50.150;8.568;2024-01-11T05:22:49;-2.20;99.00
14079;DHT22;7115;50.150;8.568;2024-01-11T05:25:16;-2.20;99.00
14079;DHT22;7115;50.150;8.568;2024-01-11T05:27:43;-2.20;99.10
14079;DHT22;7115;50.150;8.568;2024-01-11T05:30:11;-2.20;99.10
14079;DHT22;7115;50.150;8.568;2024-01-11T05:32:38;-2.30;99.10
14079;DHT22;7115;50.150;8.568;2024-01-11T05:35:07;-2.30;99.10
14079;DHT22;7115;50.150;8.568;2024-01-11T05:37:34;-2.30;99.10
14079;DHT22;7115;50.150;8.568;2024-01-11T05:40:01;-2.30;99.10
14079;DHT22;7115;50.150;8.568;2024-01-11T05:42:28;-2.30;99.10
14079;DHT22;7115;50.150;8.568;2024-01-11T05:44:55;-2.40;99.00
14079;DHT22;7115;50.150;8.568;2024-01-11T05:47:22;-2.40;99.10
14079;DHT22;7115;50.150;8.568;2024-01-11T05:49:49;-2.40;99.00
14079;DHT22;7115;50.150;8.568;2024-01-11T05:52:18;-2.50;99.00
14079;DHT22;7115;50.150;8.568;2024-01-11T05:54:48;-2.50;99.00
14079;DHT22;7115;50.150;8.568;2024-01-11T05:57:15;-2.50;99.00
14079;DHT22;7115;50.150;8.568;2024-01-11T05:59:43;-2.50;99.00
14079;DHT22;7115;50.150;8.568;2024-01-11T06:02:11;-2.50;99.00
14079;DHT22;7115;50.150;8.568;2024-01-11T06:04:38;-2.60;99.00
14079;DHT22;7115;50.150;8.568;2024-01-11T06:07:05;-2.60;99.00
14079;DHT22;7115;50.150;8.568;2024-01-11T06:09:34;-2.70;99.00
14079;DHT22;7115;50.150;8.568;2024-01-11T06:12:01;-2.70;99.00
14079;DHT22;7115;50.150;8.568;2024-01-11T06:14:28;-2.70;99.00
14079;DHT22;7115;50.150;8.568;2024-01-11T06:16:55;-2.80;99.00
14079;DHT22;7115;50.150;8.568;2024-01-11T06:19:22;-2.80;99.10
14079;DHT22;7115;50.150;8.568;2024-01-11T06:21:49;-2.80;99.10
14079;DHT22;7115;50.150;8.568;2024-01-11T06:24:16;-2.80;99.10
14079;DHT22;7115;50.150;8.568;2024-01-11T06:26:45;-2.80;99.10
14079;DHT22;7115;50.150;8.568;2024-01-11T06:29:12;-2.80;99.10
14079;DHT22;7115;50.150;8.568;2024-01-11T06:31:39;-2.90;99.10
14079;DHT22;7115;50.150;8.568;2024-01-11T06:34:06;-2.80;99.20
14079;DHT22;7115;50.150;8.568;2024-01-11T06:36:33;-2.80;99.20
14079;DHT22;7115;50.150;8.568;2024-01-11T06:39:00;-2.80;99.30
14079;DHT22;7115;50.150;8.568;2024-01-11T06:41:28;-2.70;99.30
14079;DHT22;7115;50.150;8.568;2024-01-11T06:43:56;-2.70;99.30
14079;DHT22;7115;50.150;8.568;2024-01-11T06:46:27;-2.60;99.30
14079;DHT22;7115;50.150;8.568;2024-01-11T06:48:54;-2.60;99.30
14079;DHT22;7115;50.150;8.568;2024-01-11T06:51:21;-2.60;99.30
14079;DHT22;7115;50.150;8.568;2024-01-11T06:53:48;-2.60;99.30
14079;DHT22;7115;50.150;8.568;2024-01-11T06:56:17;-2.60;99.30
14079;DHT22;7115;50.150;8.568;2024-01-11T06:58:44;-2.50;99.40
14079;DHT22;7115;50.150;8.568;2024-01-11T07:01:13;-2.50;99.40
14079;DHT22;7115;50.150;8.568;2024-01-11T07:03:40;-2.50;99.40
14079;DHT22;7115;50.150;8.568;2024-01-11T07:06:07;-2.50;99.40
14079;DHT22;7115;50.150;8.568;2024-01-11T07:08:35;-2.50;99.40
14079;DHT22;7115;50.150;8.568;2024-01-11T07:11:02;-2.50;99.40
14079;DHT22;7115;50.150;8.568;2024-01-11T07:13:30;-2.50;99.40
14079;DHT22;7115;50.150;8.568;2024-01-11T07:15:58;-2.40;99.40
14079;DHT22;7115;50.150;8.568;2024-01-11T07:18:26;-2.40;99.60
14079;DHT22;7115;50.150;8.568;2024-01-11T07:20:56;-2.40;99.40
14079;DHT22;7115;50.150;8.568;2024-01-11T07:23:23;-2.40;99.50
14079;DHT22;7115;50.150;8.568;2024-01-11T07:25:50;-2.30;99.50
14079;DHT22;7115;50.150;8.568;2024-01-11T07:28:17;-2.30;99.50
14079;DHT22;7115;50.150;8.568;2024-01-11T07:30:44;-2.30;99.50
14079;DHT22;7115;50.150;8.568;2024-01-11T07:33:12;-2.30;99.50
14079;DHT22;7115;50.150;8.568;2024-01-11T07:35:42;-2.20;99.50
14079;DHT22;7115;50.150;8.568;2024-01-11T07:38:09;-2.20;99.50
14079;DHT22;7115;50.150;8.568;2024-01-11T07:40:36;-2.20;99.60
14079;DHT22;7115;50.150;8.568;2024-01-11T07:43:05;-2.20;99.60
14079;DHT22;7115;50.150;8.568;2024-01-11T07:45:31;-2.20;99.60
14079;DHT22;7115;50.150;8.568;2024-01-11T07:47:58;-2.20;99.60
14079;DHT22;7115;50.150;8.568;2024-01-11T07:50:26;-2.20;99.50
14079;DHT22;7115;50.150;8.568;2024-01-11T07:52:56;-2.10;99.60
14079;DHT22;7115;50.150;8.568;2024-01-11T07:55:23;-2.00;99.70
14079;DHT22;7115;50.150;8.568;2024-01-11T07:57:50;-1.90;99.70
14079;DHT22;7115;50.150;8.568;2024-01-11T08:00:18;-1.60;99.80
14079;DHT22;7115;50.150;8.568;2024-01-11T08:02:45;-1.40;99.80
14079;DHT22;7115;50.150;8.568;2024-01-11T08:05:12;-1.10;99.80
14079;DHT22;7115;50.150;8.568;2024-01-11T08:07:39;-0.70;99.90
14079;DHT22;7115;50.150;8.568;2024-01-11T08:10:08;-0.30;99.90
14079;DHT22;7115;50.150;8.568;2024-01-11T08:12:38;0.10;99.90
14079;DHT22;7115;50.150;8.568;2024-01-11T08:15:06;0.60;99.90
14079;DHT22;7115;50.150;8.568;2024-01-11T08:17:33;1.00;99.90
14079;DHT22;7115;50.150;8.568;2024-01-11T08:20:00;1.40;99.80
14079;DHT22;7115;50.150;8.568;2024-01-11T08:22:27;1.90;99.80
14079;DHT22;7115;50.150;8.568;2024-01-11T08:24:55;2.20;99.60
14079;DHT22;7115;50.150;8.568;2024-01-11T08:27:24;2.60;99.40
14079;DHT22;7115;50.150;8.568;2024-01-11T08:29:51;2.90;99.20
14079;DHT22;7115;50.150;8.568;2024-01-11T08:32:18;3.30;99.10
14079;DHT22;7115;50.150;8.568;2024-01-11T08:34:57;3.60;98.90
14079;DHT22;7115;50.150;8.568;2024-01-11T08:37:25;4.00;98.70
14079;DHT22;7115;50.150;8.568;2024-01-11T08:39:52;4.40;98.50
14079;DHT22;7115;50.150;8.568;2024-01-11T08:42:19;4.80;98.20
14079;DHT22;7115;50.150;8.568;2024-01-11T08:44:47;5.30;97.80
14079;DHT22;7115;50.150;8.568;2024-01-11T08:47:14;5.70;97.50
14079;DHT22;7115;50.150;8.568;2024-01-11T08:49:42;6.00;97.00
14079;DHT22;7115;50.150;8.568;2024-01-11T08:52:10;6.40;96.60
14079;DHT22;7115;50.150;8.568;2024-01-11T08:54:37;6.60;96.10
14079;DHT22;7115;50.150;8.568;2024-01-11T08:57:04;6.90;95.70
14079;DHT22;7115;50.150;8.568;2024-01-11T08:59:31;7.10;95.20
14079;DHT22;7115;50.150;8.568;2024-01-11T09:02:01;7.20;94.90
14079;DHT22;7115;50.150;8.568;2024-01-11T09:04:41;7.30;94.50
14079;DHT22;7115;50.150;8.568;2024-01-11T09:07:08;7.50;94.20
14079;DHT22;7115;50.150;8.568;2024-01-11T09:09:35;7.60;93.80
14079;DHT22;7115;50.150;8.568;2024-01-11T09:12:16;7.80;93.60
14079;DHT22;7115;50.150;8.568;2024-01-11T09:14:43;8.10;93.40
14079;DHT22;7115;50.150;8.568;2024-01-11T09:17:12;8.40;93.10
14079;DHT22;7115;50.150;8.568;2024-01-11T09:19:39;8.70;92.70
14079;DHT22;7115;50.150;8.568;2024-01-11T09:22:07;9.00;92.30
14079;DHT22;7115;50.150;8.568;2024-01-11T09:24:37;9.20;92.00
14079;DHT22;7115;50.150;8.568;2024-01-11T09:27:06;9.50;91.70
14079;DHT22;7115;50.150;8.568;2024-01-11T09:29:33;9.90;91.20
14079;DHT22;7115;50.150;8.568;2024-01-11T09:32:01;9.90;90.70
14079;DHT22;7115;50.150;8.568;2024-01-11T09:34:29;9.90;90.40
14079;DHT22;7115;50.150;8.568;2024-01-11T09:36:56;10.00;90.00
14079;DHT22;7115;50.150;8.568;2024-01-11T09:39:26;10.00;89.60
14079;DHT22;7115;50.150;8.568;2024-01-11T09:41:58;10.20;89.10
14079;DHT22;7115;50.150;8.568;2024-01-11T09:44:26;10.40;88.30
14079;DHT22;7115;50.150;8.568;2024-01-11T09:46:53;10.60;87.90
14079;DHT22;7115;50.150;8.568;2024-01-11T09:49:22;10.80;87.40
14079;DHT22;7115;50.150;8.568;2024-01-11T09:51:51;11.10;86.80
14079;DHT22;7115;50.150;8.568;2024-01-11T09:54:19;11.30;86.20
14079;DHT22;7115;50.150;8.568;2024-01-11T09:56:49;11.60;85.60
14079;DHT22;7115;50.150;8.568;2024-01-11T09:59:18;11.70;84.80
14079;DHT22;7115;50.150;8.568;2024-01-11T10:01:47;11.90;84.50
14079;DHT22;7115;50.150;8.568;2024-01-11T10:04:14;12.10;83.90
14079;DHT22;7115;50.150;8.568;2024-01-11T10:06:42;12.10;83.00
14079;DHT22;7115;50.150;8.568;2024-01-11T10:09:11;12.30;82.50
14079;DHT22;7115;50.150;8.568;2024-01-11T10:11:39;12.50;81.90
14079;DHT22;7115;50.150;8.568;2024-01-11T10:14:06;12.70;81.20
14079;DHT22;7115;50.150;8.568;2024-01-11T10:16:34;12.90;80.20
14079;DHT22;7115;50.150;8.568;2024-01-11T10:19:02;12.80;79.10
14079;DHT22;7115;50.150;8.568;2024-01-11T10:21:30;12.80;78.60
14079;DHT22;7115;50.150;8.568;2024-01-11T10:23:58;12.80;78.20
14079;DHT22;7115;50.150;8.568;2024-01-11T10:26:29;13.00;78.00
14079;DHT22;7115;50.150;8.568;2024-01-11T10:28:59;13.30;77.40
14079;DHT22;7115;50.150;8.568;2024-01-11T10:31:28;13.50;76.90
14079;DHT22;7115;50.150;8.568;2024-01-11T10:33:55;13.70;76.10
14079;DHT22;7115;50.150;8.568;2024-01-11T10:36:24;13.70;75.00
14079;DHT22;7115;50.150;8.568;2024-01-11T10:38:53;13.50;74.20
14079;DHT22;7115;50.150;8.568;2024-01-11T10:41:20;13.30;74.20
14079;DHT22;7115;50.150;8.568;2024-01-11T10:43:50;12.80;72.80
14079;DHT22;7115;50.150;8.568;2024-01-11T10:46:21;12.00;72.60
14079;DHT22;7115;50.150;8.568;2024-01-11T10:48:55;11.50;73.30
14079;DHT22;7115;50.150;8.568;2024-01-11T10:51:23;11.00;73.30
14079;DHT22;7115;50.150;8.568;2024-01-11T10:53:51;10.60;73.80
14079;DHT22;7115;50.150;8.568;2024-01-11T10:56:20;10.40;74.20
14079;DHT22;7115;50.150;8.568;2024-01-11T10:58:49;10.20;74.30
14079;DHT22;7115;50.150;8.568;2024-01-11T11:01:18;10.00;74.30
14079;DHT22;7115;50.150;8.568;2024-01-11T11:03:48;9.80;74.50
14079;DHT22;7115;50.150;8.568;2024-01-11T11:06:20;9.70;74.90
14079;DHT22;7115;50.150;8.568;2024-01-11T11:08:50;9.60;75.10
14079;DHT22;7115;50.150;8.568;2024-01-11T11:11:19;9.60;75.20
14079;DHT22;7115;50.150;8.568;2024-01-11T11:13:48;9.50;75.20
14079;DHT22;7115;50.150;8.568;2024-01-11T11:16:16;9.30;75.30
14079;DHT22;7115;50.150;8.568;2024-01-11T11:18:43;9.10;75.30
14079;DHT22;7115;50.150;8.568;2024-01-11T11:21:10;9.00;75.60
14079;DHT22;7115;50.150;8.568;2024-01-11T11:23:40;8.70;75.40
14079;DHT22;7115;50.150;8.568;2024-01-11T11:26:07;8.40;75.80
14079;DHT22;7115;50.150;8.568;2024-01-11T11:28:41;8.30;76.00
14079;DHT22;7115;50.150;8.568;2024-01-11T11:31:10;8.10;76.10
14079;DHT22;7115;50.150;8.568;2024-01-11T11:33:38;7.90;76.30
14079;DHT22;7115;50.150;8.568;2024-01-11T11:36:06;7.70;76.30
14079;DHT22;7115;50.150;8.568;2024-01-11T11:38:38;7.50;76.60
14079;DHT22;7115;50.150;8.568;2024-01-11T11:41:07;7.10;76.70
14079;DHT22;7115;50.150;8.568;2024-01-11T11:43:34;6.70;76.90
14079;DHT22;7115;50.150;8.568;2024-01-11T11:46:03;6.40;77.50
14079;DHT22;7115;50.150;8.568;2024-01-11T11:48:52;6.10;77.90
14079;DHT22;7115;50.150;8.568;2024-01-11T11:51:20;5.80;78.60
14079;DHT22;7115;50.150;8.568;2024-01-11T11:53:51;5.70;79.00
14079;DHT22;7115;50.150;8.568;2024-01-11T11:56:19;5.60;79.40
14079;DHT22;7115;50.150;8.568;2024-01-11T11:58:48;5.50;79.60
14079;DHT22;7115;50.150;8.568;2024-01-11T12:01:17;5.40;79.80
14079;DHT22;7115;50.150;8.568;2024-01-11T12:03:46;5.30;80.20
14079;DHT22;7115;50.150;8.568;2024-01-11T12:06:21;5.20;80.20
14079;DHT22;7115;50.150;8.568;2024-01-11T12:08:52;5.10;80.50
14079;DHT22;7115;50.150;8.568;2024-01-11T12:11:24;4.90;80.70
14079;DHT22;7115;50.150;8.568;2024-01-11T12:13:52;4.80;80.90
14079;DHT22;7115;50.150;8.568;2024-01-11T12:16:20;4.70;81.30
14079;DHT22;7115;50.150;8.568;2024-01-11T12:18:49;4.60;81.50
14079;DHT22;7115;50.150;8.568;2024-01-11T12:21:17;4.60;81.70
14079;DHT22;7115;50.150;8.568;2024-01-11T12:23:44;4.50;82.60
14079;DHT22;7115;50.150;8.568;2024-01-11T12:26:13;4.50;82.10
14079;DHT22;7115;50.150;8.568;2024-01-11T12:28:42;4.50;82.20
14079;DHT22;7115;50.150;8.568;2024-01-11T12:31:12;4.50;82.40
14079;DHT22;7115;50.150;8.568;2024-01-11T12:33:40;4.40;82.50
14079;DHT22;7115;50.150;8.568;2024-01-11T12:36:08;4.40;82.80
14079;DHT22;7115;50.150;8.568;2024-01-11T12:38:37;4.50;82.90
14079;DHT22;7115;50.150;8.568;2024-01-11T12:41:05;4.50;83.00
14079;DHT22;7115;50.150;8.568;2024-01-11T12:43:34;4.50;83.10
14079;DHT22;7115;50.150;8.568;2024-01-11T12:46:02;4.50;83.20
14079;DHT22;7115;50.150;8.568;2024-01-11T12:48:29;4.50;83.30
14079;DHT22;7115;50.150;8.568;2024-01-11T12:50:57;4.40;83.30
14079;DHT22;7115;50.150;8.568;2024-01-11T12:53:41;4.40;83.50
14079;DHT22;7115;50.150;8.568;2024-01-11T12:56:09;4.40;83.50
14079;DHT22;7115;50.150;8.568;2024-01-11T12:58:38;4.40;83.80
14079;DHT22;7115;50.150;8.568;2024-01-11T13:01:06;4.50;83.80
14079;DHT22;7115;50.150;8.568;2024-01-11T13:03:39;4.40;83.90
14079;DHT22;7115;50.150;8.568;2024-01-11T13:06:06;4.40;84.00
14079;DHT22;7115;50.150;8.568;2024-01-11T13:08:35;4.40;84.00
14079;DHT22;7115;50.150;8.568;2024-01-11T13:11:05;4.40;84.20
14079;DHT22;7115;50.150;8.568;2024-01-11T13:13:36;4.40;84.20
14079;DHT22;7115;50.150;8.568;2024-01-11T13:16:03;4.40;84.40
14079;DHT22;7115;50.150;8.568;2024-01-11T13:18:33;4.40;84.60
14079;DHT22;7115;50.150;8.568;2024-01-11T13:21:00;4.40;84.80
14079;DHT22;7115;50.150;8.568;2024-01-11T13:23:29;4.40;84.80
14079;DHT22;7115;50.150;8.568;2024-01-11T13:25:58;4.40;84.90
14079;DHT22;7115;50.150;8.568;2024-01-11T13:28:26;4.50;85.00
14079;DHT22;7115;50.150;8.568;2024-01-11T13:30:53;4.50;85.00
14079;DHT22;7115;50.150;8.568;2024-01-11T13:33:21;4.50;85.10
14079;DHT22;7115;50.150;8.568;2024-01-11T13:35:50;4.50;85.10
14079;DHT22;7115;50.150;8.568;2024-01-11T13:38:18;4.50;85.20
14079;DHT22;7115;50.150;8.568;2024-01-11T13:40:48;4.50;85.30
14079;DHT22;7115;50.150;8.568;2024-01-11T13:43:15;4.50;85.40
14079;DHT22;7115;50.150;8.568;2024-01-11T13:45:43;4.50;85.40
14079;DHT22;7115;50.150;8.568;2024-01-11T13:48:11;4.60;85.50
14079;DHT22;7115;50.150;8.568;2024-01-11T13:50:38;4.60;85.50
14079;DHT22;7115;50.150;8.568;2024-01-11T13:53:06;4.60;86.30
14079;DHT22;7115;50.150;8.568;2024-01-11T13:55:33;4.70;85.70
14079;DHT22;7115;50.150;8.568;2024-01-11T13:58:07;4.80;85.80
14079;DHT22;7115;50.150;8.568;2024-01-11T14:00:35;4.80;85.80
14079;DHT22;7115;50.150;8.568;2024-01-11T14:03:04;4.80;85.70
14079;DHT22;7115;50.150;8.568;2024-01-11T14:05:33;5.00;85.80
14079;DHT22;7115;50.150;8.568;2024-01-11T14:08:00;5.00;85.60
14079;DHT22;7115;50.150;8.568;2024-01-11T14:10:32;5.00;85.60
14079;DHT22;7115;50.150;8.568;2024-01-11T14:13:00;5.00;85.60
14079;DHT22;7115;50.150;8.568;2024-01-11T14:15:27;5.00;85.70
14079;DHT22;7115;50.150;8.568;2024-01-11T14:17:54;5.00;85.70
14079;DHT22;7115;50.150;8.568;2024-01-11T14:20:23;4.90;85.70
14079;DHT22;7115;50.150;8.568;2024-01-11T14:22:50;4.90;85.80
14079;DHT22;7115;50.150;8.568;2024-01-11T14:25:18;4.90;85.80
14079;DHT22;7115;50.150;8.568;2024-01-11T14:27:46;4.90;85.90
14079;DHT22;7115;50.150;8.568;2024-01-11T14:30:14;4.90;85.90
14079;DHT22;7115;50.150;8.568;2024-01-11T14:32:41;4.80;85.90
14079;DHT22;7115;50.150;8.568;2024-01-11T14:35:09;4.80;86.00
14079;DHT22;7115;50.150;8.568;2024-01-11T14:37:39;4.80;86.00
14079;DHT22;7115;50.150;8.568;2024-01-11T14:40:08;4.70;86.00
14079;DHT22;7115;50.150;8.568;2024-01-11T14:42:38;4.70;86.00
14079;DHT22;7115;50.150;8.568;2024-01-11T14:45:06;4.60;86.00
14079;DHT22;7115;50.150;8.568;2024-01-11T14:47:36;4.60;86.10
14079;DHT22;7115;50.150;8.568;2024-01-11T14:50:04;4.60;86.20
14079;DHT22;7115;50.150;8.568;2024-01-11T14:52:32;4.50;86.20
14079;DHT22;7115;50.150;8.568;2024-01-11T14:55:01;4.50;86.30
14079;DHT22;7115;50.150;8.568;2024-01-11T14:57:30;4.50;86.30
14079;DHT22;7115;50.150;8.568;2024-01-11T14:59:58;4.50;86.50
14079;DHT22;7115;50.150;8.568;2024-01-11T15:02:25;4.50;86.50
14079;DHT22;7115;50.150;8.568;2024-01-11T15:04:52;4.50;87.30
14079;DHT22;7115;50.150;8.568;2024-01-11T15:07:19;4.60;86.70
14079;DHT22;7115;50.150;8.568;2024-01-11T15:09:46;4.60;86.60
14079;DHT22;7115;50.150;8.568;2024-01-11T15:12:15;4.70;86.70
14079;DHT22;7115;50.150;8.568;2024-01-11T15:14:42;4.70;86.80
14079;DHT22;7115;50.150;8.568;2024-01-11T15:17:09;4.70;86.90
14079;DHT22;7115;50.150;8.568;2024-01-11T15:19:36;4.60;86.90
14079;DHT22;7115;50.150;8.568;2024-01-11T15:22:03;4.80;87.00
14079;DHT22;7115;50.150;8.568;2024-01-11T15:24:31;4.60;87.00
14079;DHT22;7115;50.150;8.568;2024-01-11T15:26:59;4.60;87.10
14079;DHT22;7115;50.150;8.568;2024-01-11T15:29:27;4.50;87.20
14079;DHT22;7115;50.150;8.568;2024-01-11T15:31:54;4.50;87.40
14079;DHT22;7115;50.150;8.568;2024-01-11T15:34:21;4.50;87.60
14079;DHT22;7115;50.150;8.568;2024-01-11T15:36:49;4.40;87.70
14079;DHT22;7115;50.150;8.568;2024-01-11T15:39:16;4.30;87.60
14079;DHT22;7115;50.150;8.568;2024-01-11T15:41:54;4.30;87.70
14079;DHT22;7115;50.150;8.568;2024-01-11T15:44:23;4.30;87.80
14079;DHT22;7115;50.150;8.568;2024-01-11T15:46:57;4.20;87.80
14079;DHT22;7115;50.150;8.568;2024-01-11T15:49:24;4.30;88.50
14079;DHT22;7115;50.150;8.568;2024-01-11T15:51:54;4.20;88.60
14079;DHT22;7115;50.150;8.568;2024-01-11T15:54:21;4.20;88.70
14079;DHT22;7115;50.150;8.568;2024-01-11T15:56:48;4.10;88.60